sensor_id;sensor_type;location;lat;lon;timestamp;P1;durP1;ratioP1;P2;durP2;ratioP2
70477;SDS011;57956;53.362;-1.518;2023-07-20T00:01:23;3.23;;;0.50;;
70477;SDS011;57956;53.362;-1.518;2023-07-20T00:03:48;3.17;;;0.70;;
70477;SDS011;57956;53.362;-1.518;2023-07-20T00:06:20;2.38;;;0.55;;
70477;SDS011;57956;53.362;-1.518;2023-07-20T00:08:45;2.63;;;0.60;;
70477;SDS011;57956;53.362;-1.518;2023-07-20T00:11:10;3.07;;;0.70;;
70477;SDS011;57956;53.362;-1.518;2023-07-20T00:13:35;2.33;;;0.67;;
70477;SDS011;57956;53.362;-1.518;2023-07-20T00:16:00;3.40;;;0.40;;
70477;SDS011;57956;53.362;-1.518;2023-07-20T00:18:26;2.20;;;0.50;;
70477;SDS011;57956;53.362;-1.518;2023-07-20T00:20:51;2.80;;;0.57;;
70477;SDS011;57956;53.362;-1.518;2023-07-20T00:23:16;2.40;;;0.60;;
70477;SDS011;57956;53.362;-1.518;2023-07-20T00:25:41;4.60;;;0.63;;
70477;SDS011;57956;53.362;-1.518;2023-07-20T00:28:07;4.50;;;0.70;;
70477;SDS011;57956;53.362;-1.518;2023-07-20T00:30:32;3.37;;;0.77;;
70477;SDS011;57956;53.362;-1.518;2023-07-20T00:32:57;3.00;;;1.03;;
70477;SDS011;57956;53.362;-1.518;2023-07-20T00:35:23;3.33;;;0.90;;
70477;SDS011;57956;53.362;-1.518;2023-07-20T00:37:49;5.07;;;0.70;;
70477;SDS011;57956;53.362;-1.518;2023-07-20T00:40:14;3.87;;;0.87;;
70477;SDS011;57956;53.362;-1.518;2023-07-20T00:42:39;4.30;;;0.77;;
70477;SDS011;57956;53.362;-1.518;2023-07-20T00:45:05;5.70;;;0.90;;
70477;SDS011;57956;53.362;-1.518;2023-07-20T00:47:31;3.13;;;0.67;;
70477;SDS011;57956;53.362;-1.518;2023-07-20T00:49:57;3.22;;;0.77;;
70477;SDS011;57956;53.362;-1.518;2023-07-20T00:52:22;3.37;;;0.93;;
70477;SDS011;57956;53.362;-1.518;2023-07-20T00:54:48;3.83;;;0.80;;
70477;SDS011;57956;53.362;-1.518;2023-07-20T00:57:14;3.58;;;0.75;;
70477;SDS011;57956;53.362;-1.518;2023-07-20T00:59:40;3.30;;;0.50;;
70477;SDS011;57956;53.362;-1.518;2023-07-20T01:02:05;5.73;;;0.50;;
70477;SDS011;57956;53.362;-1.518;2023-07-20T01:04:30;3.77;;;1.00;;
70477;SDS011;57956;53.362;-1.518;2023-07-20T01:14:20;3.93;;;1.17;;
70477;SDS011;57956;53.362;-1.518;2023-07-20T01:16:46;3.28;;;0.88;;
70477;SDS011;57956;53.362;-1.518;2023-07-20T01:19:14;3.00;;;0.60;;
70477;SDS011;57956;53.362;-1.518;2023-07-20T01:21:40;4.63;;;1.23;;
70477;SDS011;57956;53.362;-1.518;2023-07-20T01:29:22;3.17;;;0.80;;
70477;SDS011;57956;53.362;-1.518;2023-07-20T01:31:52;3.57;;;0.60;;
70477;SDS011;57956;53.362;-1.518;2023-07-20T01:34:19;4.72;;;0.88;;
70477;SDS011;57956;53.362;-1.518;2023-07-20T01:36:45;2.72;;;0.60;;
70477;SDS011;57956;53.362;-1.518;2023-07-20T01:39:13;3.25;;;0.60;;
70477;SDS011;57956;53.362;-1.518;2023-07-20T01:41:39;3.10;;;0.67;;
70477;SDS011;57956;53.362;-1.518;2023-07-20T01:44:04;3.43;;;0.80;;
70477;SDS011;57956;53.362;-1.518;2023-07-20T01:46:30;4.43;;;0.80;;
70477;SDS011;57956;53.362;-1.518;2023-07-20T01:48:55;2.77;;;0.53;;
70477;SDS011;57956;53.362;-1.518;2023-07-20T01:51:20;3.70;;;0.90;;
70477;SDS011;57956;53.362;-1.518;2023-07-20T01:53:45;3.17;;;0.80;;
70477;SDS011;57956;53.362;-1.518;2023-07-20T01:56:11;3.43;;;1.10;;
70477;SDS011;57956;53.362;-1.518;2023-07-20T01:58:37;5.68;;;0.95;;
70477;SDS011;57956;53.362;-1.518;2023-07-20T02:01:02;3.87;;;0.90;;
70477;SDS011;57956;53.362;-1.518;2023-07-20T02:03:28;3.67;;;0.87;;
70477;SDS011;57956;53.362;-1.518;2023-07-20T02:05:53;3.27;;;0.70;;
70477;SDS011;57956;53.362;-1.518;2023-07-20T02:08:18;5.00;;;0.88;;
70477;SDS011;57956;53.362;-1.518;2023-07-20T02:10:47;2.77;;;0.70;;
70477;SDS011;57956;53.362;-1.518;2023-07-20T02:13:12;3.40;;;0.83;;
70477;SDS011;57956;53.362;-1.518;2023-07-20T02:15:37;4.97;;;0.57;;
70477;SDS011;57956;53.362;-1.518;2023-07-20T02:18:02;4.40;;;1.10;;
70477;SDS011;57956;53.362;-1.518;2023-07-20T02:20:28;4.03;;;0.70;;
70477;SDS011;57956;53.362;-1.518;2023-07-20T02:22:53;3.17;;;0.80;;
70477;SDS011;57956;53.362;-1.518;2023-07-20T02:25:19;3.20;;;0.67;;
70477;SDS011;57956;53.362;-1.518;2023-07-20T02:27:44;3.90;;;0.50;;
70477;SDS011;57956;53.362;-1.518;2023-07-20T02:30:09;4.10;;;0.50;;
70477;SDS011;57956;53.362;-1.518;2023-07-20T02:32:36;3.80;;;0.80;;
70477;SDS011;57956;53.362;-1.518;2023-07-20T02:35:01;4.22;;;0.80;;
70477;SDS011;57956;53.362;-1.518;2023-07-20T02:37:28;3.17;;;0.57;;
70477;SDS011;57956;53.362;-1.518;2023-07-20T02:39:54;3.83;;;0.70;;
70477;SDS011;57956;53.362;-1.518;2023-07-20T02:42:19;3.17;;;0.70;;
70477;SDS011;57956;53.362;-1.518;2023-07-20T02:44:44;4.27;;;0.90;;
70477;SDS011;57956;53.362;-1.518;2023-07-20T02:47:09;4.47;;;0.80;;
70477;SDS011;57956;53.362;-1.518;2023-07-20T02:49:35;4.37;;;0.80;;
70477;SDS011;57956;53.362;-1.518;2023-07-20T02:52:00;5.27;;;0.57;;
70477;SDS011;57956;53.362;-1.518;2023-07-20T02:54:25;3.00;;;0.50;;
70477;SDS011;57956;53.362;-1.518;2023-07-20T02:56:50;3.23;;;0.70;;
70477;SDS011;57956;53.362;-1.518;2023-07-20T02:59:16;4.47;;;0.97;;
70477;SDS011;57956;53.362;-1.518;2023-07-20T03:01:41;6.27;;;0.93;;
70477;SDS011;57956;53.362;-1.518;2023-07-20T03:04:07;5.95;;;1.02;;
70477;SDS011;57956;53.362;-1.518;2023-07-20T03:06:34;3.67;;;1.08;;
70477;SDS011;57956;53.362;-1.518;2023-07-20T03:09:01;4.07;;;0.88;;
70477;SDS011;57956;53.362;-1.518;2023-07-20T03:11:26;4.17;;;0.70;;
70477;SDS011;57956;53.362;-1.518;2023-07-20T03:13:51;3.40;;;0.80;;
70477;SDS011;57956;53.362;-1.518;2023-07-20T03:16:17;3.77;;;0.80;;
70477;SDS011;57956;53.362;-1.518;2023-07-20T03:18:43;3.72;;;0.73;;
70477;SDS011;57956;53.362;-1.518;2023-07-20T03:21:08;3.93;;;0.77;;
70477;SDS011;57956;53.362;-1.518;2023-07-20T03:23:36;4.03;;;0.68;;
70477;SDS011;57956;53.362;-1.518;2023-07-20T03:26:01;2.53;;;0.47;;
70477;SDS011;57956;53.362;-1.518;2023-07-20T03:28:26;4.70;;;1.10;;
70477;SDS011;57956;53.362;-1.518;2023-07-20T03:30:57;2.97;;;0.70;;
70477;SDS011;57956;53.362;-1.518;2023-07-20T03:33:24;2.67;;;0.50;;
70477;SDS011;57956;53.362;-1.518;2023-07-20T03:35:50;4.95;;;0.90;;
70477;SDS011;57956;53.362;-1.518;2023-07-20T03:38:15;5.27;;;0.87;;
70477;SDS011;57956;53.362;-1.518;2023-07-20T03:40:48;2.83;;;0.60;;
70477;SDS011;57956;53.362;-1.518;2023-07-20T03:43:13;3.35;;;0.60;;
70477;SDS011;57956;53.362;-1.518;2023-07-20T03:45:39;4.67;;;1.00;;
70477;SDS011;57956;53.362;-1.518;2023-07-20T03:48:04;6.40;;;0.80;;
70477;SDS011;57956;53.362;-1.518;2023-07-20T03:50:30;4.20;;;0.80;;
70477;SDS011;57956;53.362;-1.518;2023-07-20T03:52:56;4.83;;;1.00;;
70477;SDS011;57956;53.362;-1.518;2023-07-20T03:55:21;4.93;;;0.77;;
70477;SDS011;57956;53.362;-1.518;2023-07-20T03:57:46;5.43;;;1.00;;
70477;SDS011;57956;53.362;-1.518;2023-07-20T04:00:12;5.80;;;1.37;;
70477;SDS011;57956;53.362;-1.518;2023-07-20T04:02:39;3.40;;;0.70;;
70477;SDS011;57956;53.362;-1.518;2023-07-20T04:05:04;3.50;;;0.70;;
70477;SDS011;57956;53.362;-1.518;2023-07-20T04:07:30;2.77;;;0.50;;
70477;SDS011;57956;53.362;-1.518;2023-07-20T04:09:55;3.13;;;0.70;;
70477;SDS011;57956;53.362;-1.518;2023-07-20T04:12:20;3.17;;;0.70;;
70477;SDS011;57956;53.362;-1.518;2023-07-20T04:14:45;4.43;;;1.03;;
70477;SDS011;57956;53.362;-1.518;2023-07-20T04:17:11;5.10;;;0.90;;
70477;SDS011;57956;53.362;-1.518;2023-07-20T04:19:38;4.40;;;1.00;;
70477;SDS011;57956;53.362;-1.518;2023-07-20T04:22:03;3.43;;;0.83;;
70477;SDS011;57956;53.362;-1.518;2023-07-20T04:24:29;4.47;;;0.93;;
70477;SDS011;57956;53.362;-1.518;2023-07-20T04:26:54;3.60;;;1.03;;
70477;SDS011;57956;53.362;-1.518;2023-07-20T04:29:19;6.37;;;0.80;;
70477;SDS011;57956;53.362;-1.518;2023-07-20T04:31:44;5.67;;;1.00;;
70477;SDS011;57956;53.362;-1.518;2023-07-20T04:34:09;4.17;;;0.90;;
70477;SDS011;57956;53.362;-1.518;2023-07-20T04:36:35;4.17;;;0.70;;
70477;SDS011;57956;53.362;-1.518;2023-07-20T04:39:00;7.33;;;1.40;;
70477;SDS011;57956;53.362;-1.518;2023-07-20T04:41:26;5.93;;;1.30;;
70477;SDS011;57956;53.362;-1.518;2023-07-20T04:43:51;4.70;;;0.90;;
70477;SDS011;57956;53.362;-1.518;2023-07-20T04:46:16;3.50;;;0.80;;
70477;SDS011;57956;53.362;-1.518;2023-07-20T04:48:43;5.78;;;1.20;;
70477;SDS011;57956;53.362;-1.518;2023-07-20T04:51:08;4.63;;;1.00;;
70477;SDS011;57956;53.362;-1.518;2023-07-20T04:53:35;5.00;;;0.97;;
70477;SDS011;57956;53.362;-1.518;2023-07-20T04:56:00;5.30;;;0.90;;
70477;SDS011;57956;53.362;-1.518;2023-07-20T04:58:25;4.95;;;1.45;;
70477;SDS011;57956;53.362;-1.518;2023-07-20T05:00:51;3.23;;;0.80;;
70477;SDS011;57956;53.362;-1.518;2023-07-20T05:03:16;6.47;;;1.07;;
70477;SDS011;57956;53.362;-1.518;2023-07-20T05:05:41;4.50;;;1.03;;
70477;SDS011;57956;53.362;-1.518;2023-07-20T05:08:07;5.03;;;1.10;;
70477;SDS011;57956;53.362;-1.518;2023-07-20T05:10:32;4.07;;;1.07;;
70477;SDS011;57956;53.362;-1.518;2023-07-20T05:12:57;6.27;;;1.10;;
70477;SDS011;57956;53.362;-1.518;2023-07-20T05:15:23;4.22;;;1.30;;
70477;SDS011;57956;53.362;-1.518;2023-07-20T05:17:48;5.33;;;1.17;;
70477;SDS011;57956;53.362;-1.518;2023-07-20T05:20:14;6.40;;;1.20;;
70477;SDS011;57956;53.362;-1.518;2023-07-20T05:22:39;5.72;;;1.45;;
70477;SDS011;57956;53.362;-1.518;2023-07-20T05:25:08;6.10;;;1.53;;
70477;SDS011;57956;53.362;-1.518;2023-07-20T05:27:34;8.45;;;1.60;;
70477;SDS011;57956;53.362;-1.518;2023-07-20T05:30:00;5.10;;;1.60;;
70477;SDS011;57956;53.362;-1.518;2023-07-20T05:32:25;6.03;;;1.70;;
70477;SDS011;57956;53.362;-1.518;2023-07-20T05:34:53;7.90;;;1.33;;
70477;SDS011;57956;53.362;-1.518;2023-07-20T05:37:19;4.85;;;1.48;;
70477;SDS011;57956;53.362;-1.518;2023-07-20T05:39:44;6.60;;;1.60;;
70477;SDS011;57956;53.362;-1.518;2023-07-20T05:42:09;7.37;;;1.80;;
70477;SDS011;57956;53.362;-1.518;2023-07-20T05:44:34;5.50;;;1.40;;
70477;SDS011;57956;53.362;-1.518;2023-07-20T05:47:00;5.93;;;1.23;;
70477;SDS011;57956;53.362;-1.518;2023-07-20T05:49:25;5.57;;;1.63;;
70477;SDS011;57956;53.362;-1.518;2023-07-20T05:51:53;7.30;;;1.40;;
70477;SDS011;57956;53.362;-1.518;2023-07-20T05:54:18;7.57;;;0.95;;
70477;SDS011;57956;53.362;-1.518;2023-07-20T05:56:45;6.60;;;1.30;;
70477;SDS011;57956;53.362;-1.518;2023-07-20T05:59:10;6.28;;;1.30;;
70477;SDS011;57956;53.362;-1.518;2023-07-20T06:01:35;6.63;;;1.50;;
70477;SDS011;57956;53.362;-1.518;2023-07-20T06:04:00;6.63;;;1.67;;
70477;SDS011;57956;53.362;-1.518;2023-07-20T06:06:26;5.53;;;1.60;;
70477;SDS011;57956;53.362;-1.518;2023-07-20T06:08:51;7.77;;;1.53;;
70477;SDS011;57956;53.362;-1.518;2023-07-20T06:11:16;8.43;;;1.87;;
70477;SDS011;57956;53.362;-1.518;2023-07-20T06:13:42;5.37;;;1.73;;
70477;SDS011;57956;53.362;-1.518;2023-07-20T06:16:11;6.88;;;2.00;;
70477;SDS011;57956;53.362;-1.518;2023-07-20T06:18:37;7.60;;;1.98;;
70477;SDS011;57956;53.362;-1.518;2023-07-20T06:21:02;7.00;;;2.00;;
70477;SDS011;57956;53.362;-1.518;2023-07-20T06:23:27;7.37;;;2.10;;
70477;SDS011;57956;53.362;-1.518;2023-07-20T06:25:52;8.97;;;1.70;;
70477;SDS011;57956;53.362;-1.518;2023-07-20T06:28:18;10.30;;;2.03;;
70477;SDS011;57956;53.362;-1.518;2023-07-20T06:30:43;8.63;;;2.23;;
70477;SDS011;57956;53.362;-1.518;2023-07-20T06:33:08;6.32;;;2.15;;
70477;SDS011;57956;53.362;-1.518;2023-07-20T06:35:34;7.00;;;2.00;;
70477;SDS011;57956;53.362;-1.518;2023-07-20T06:38:00;8.93;;;2.23;;
70477;SDS011;57956;53.362;-1.518;2023-07-20T06:40:25;7.65;;;1.55;;
70477;SDS011;57956;53.362;-1.518;2023-07-20T06:42:50;9.50;;;2.37;;
70477;SDS011;57956;53.362;-1.518;2023-07-20T06:45:16;5.77;;;2.07;;
70477;SDS011;57956;53.362;-1.518;2023-07-20T06:47:41;8.00;;;2.13;;
70477;SDS011;57956;53.362;-1.518;2023-07-20T06:50:06;11.70;;;2.70;;
70477;SDS011;57956;53.362;-1.518;2023-07-20T06:52:32;15.82;;;3.33;;
70477;SDS011;57956;53.362;-1.518;2023-07-20T06:54:57;11.43;;;2.70;;
70477;SDS011;57956;53.362;-1.518;2023-07-20T06:57:22;9.77;;;2.40;;
70477;SDS011;57956;53.362;-1.518;2023-07-20T06:59:48;9.23;;;2.77;;
70477;SDS011;57956;53.362;-1.518;2023-07-20T07:02:13;7.87;;;2.40;;
70477;SDS011;57956;53.362;-1.518;2023-07-20T07:04:39;8.30;;;2.63;;
70477;SDS011;57956;53.362;-1.518;2023-07-20T07:07:04;8.07;;;2.03;;
70477;SDS011;57956;53.362;-1.518;2023-07-20T07:09:29;8.30;;;2.80;;
70477;SDS011;57956;53.362;-1.518;2023-07-20T07:11:54;5.67;;;1.80;;
70477;SDS011;57956;53.362;-1.518;2023-07-20T07:14:20;7.80;;;2.30;;
70477;SDS011;57956;53.362;-1.518;2023-07-20T07:16:46;7.88;;;2.25;;
70477;SDS011;57956;53.362;-1.518;2023-07-20T07:19:11;7.40;;;2.60;;
70477;SDS011;57956;53.362;-1.518;2023-07-20T07:21:36;10.20;;;2.37;;
70477;SDS011;57956;53.362;-1.518;2023-07-20T07:24:01;8.27;;;2.57;;
70477;SDS011;57956;53.362;-1.518;2023-07-20T07:26:27;9.20;;;2.60;;
70477;SDS011;57956;53.362;-1.518;2023-07-20T07:28:52;8.37;;;2.33;;
70477;SDS011;57956;53.362;-1.518;2023-07-20T07:31:17;9.33;;;2.97;;
70477;SDS011;57956;53.362;-1.518;2023-07-20T07:33:43;8.73;;;2.30;;
70477;SDS011;57956;53.362;-1.518;2023-07-20T07:36:08;12.27;;;2.60;;
70477;SDS011;57956;53.362;-1.518;2023-07-20T07:38:33;9.00;;;2.40;;
70477;SDS011;57956;53.362;-1.518;2023-07-20T07:40:59;9.70;;;2.97;;
70477;SDS011;57956;53.362;-1.518;2023-07-20T07:43:24;8.57;;;2.47;;
70477;SDS011;57956;53.362;-1.518;2023-07-20T07:45:49;10.90;;;2.57;;
70477;SDS011;57956;53.362;-1.518;2023-07-20T07:48:15;7.93;;;2.55;;
70477;SDS011;57956;53.362;-1.518;2023-07-20T07:50:40;8.07;;;3.13;;
70477;SDS011;57956;53.362;-1.518;2023-07-20T07:53:05;9.43;;;3.17;;
70477;SDS011;57956;53.362;-1.518;2023-07-20T07:55:31;6.57;;;1.93;;
70477;SDS011;57956;53.362;-1.518;2023-07-20T07:57:56;7.57;;;2.30;;
70477;SDS011;57956;53.362;-1.518;2023-07-20T08:00:21;9.03;;;3.40;;
70477;SDS011;57956;53.362;-1.518;2023-07-20T08:02:46;6.57;;;1.60;;
70477;SDS011;57956;53.362;-1.518;2023-07-20T08:05:13;7.30;;;2.45;;
70477;SDS011;57956;53.362;-1.518;2023-07-20T08:07:38;10.23;;;2.20;;
70477;SDS011;57956;53.362;-1.518;2023-07-20T08:10:04;6.93;;;2.08;;
70477;SDS011;57956;53.362;-1.518;2023-07-20T08:12:29;6.17;;;1.90;;
70477;SDS011;57956;53.362;-1.518;2023-07-20T08:14:55;8.27;;;2.08;;
70477;SDS011;57956;53.362;-1.518;2023-07-20T08:17:20;7.17;;;2.10;;
70477;SDS011;57956;53.362;-1.518;2023-07-20T08:19:45;9.07;;;2.23;;
70477;SDS011;57956;53.362;-1.518;2023-07-20T08:22:11;7.03;;;2.30;;
70477;SDS011;57956;53.362;-1.518;2023-07-20T08:24:39;7.07;;;2.20;;
70477;SDS011;57956;53.362;-1.518;2023-07-20T08:27:04;9.90;;;1.95;;
70477;SDS011;57956;53.362;-1.518;2023-07-20T08:29:29;6.67;;;1.80;;
70477;SDS011;57956;53.362;-1.518;2023-07-20T08:31:55;8.87;;;2.43;;
70477;SDS011;57956;53.362;-1.518;2023-07-20T08:34:20;10.63;;;2.50;;
70477;SDS011;57956;53.362;-1.518;2023-07-20T08:36:45;5.30;;;2.10;;
70477;SDS011;57956;53.362;-1.518;2023-07-20T08:39:10;6.13;;;1.97;;
70477;SDS011;57956;53.362;-1.518;2023-07-20T08:41:36;6.70;;;1.77;;
70477;SDS011;57956;53.362;-1.518;2023-07-20T08:44:02;6.75;;;2.25;;
70477;SDS011;57956;53.362;-1.518;2023-07-20T08:46:27;6.33;;;1.80;;
70477;SDS011;57956;53.362;-1.518;2023-07-20T08:48:53;5.33;;;1.70;;
70477;SDS011;57956;53.362;-1.518;2023-07-20T08:51:19;7.47;;;1.85;;
70477;SDS011;57956;53.362;-1.518;2023-07-20T08:53:46;4.63;;;1.55;;
70477;SDS011;57956;53.362;-1.518;2023-07-20T08:56:12;9.15;;;1.77;;
70477;SDS011;57956;53.362;-1.518;2023-07-20T08:58:39;6.53;;;1.77;;
70477;SDS011;57956;53.362;-1.518;2023-07-20T09:01:04;7.33;;;2.13;;
70477;SDS011;57956;53.362;-1.518;2023-07-20T09:03:29;6.40;;;1.70;;
70477;SDS011;57956;53.362;-1.518;2023-07-20T09:05:55;7.07;;;2.33;;
70477;SDS011;57956;53.362;-1.518;2023-07-20T09:08:20;8.30;;;2.10;;
70477;SDS011;57956;53.362;-1.518;2023-07-20T09:10:45;5.07;;;1.87;;
70477;SDS011;57956;53.362;-1.518;2023-07-20T09:13:14;6.50;;;2.00;;
70477;SDS011;57956;53.362;-1.518;2023-07-20T09:15:39;7.32;;;2.08;;
70477;SDS011;57956;53.362;-1.518;2023-07-20T09:18:10;6.18;;;2.15;;
70477;SDS011;57956;53.362;-1.518;2023-07-20T09:20:36;6.27;;;2.20;;
70477;SDS011;57956;53.362;-1.518;2023-07-20T09:23:04;7.43;;;1.93;;
70477;SDS011;57956;53.362;-1.518;2023-07-20T09:25:29;9.10;;;1.92;;
70477;SDS011;57956;53.362;-1.518;2023-07-20T09:27:54;6.40;;;1.87;;
70477;SDS011;57956;53.362;-1.518;2023-07-20T09:30:21;6.30;;;2.07;;
70477;SDS011;57956;53.362;-1.518;2023-07-20T09:32:49;7.68;;;1.90;;
70477;SDS011;57956;53.362;-1.518;2023-07-20T09:35:19;13.43;;;2.33;;
70477;SDS011;57956;53.362;-1.518;2023-07-20T09:37:57;10.73;;;2.28;;
70477;SDS011;57956;53.362;-1.518;2023-07-20T09:40:22;6.45;;;2.10;;
70477;SDS011;57956;53.362;-1.518;2023-07-20T09:42:48;6.17;;;1.80;;
70477;SDS011;57956;53.362;-1.518;2023-07-20T09:46:02;6.88;;;2.22;;
70477;SDS011;57956;53.362;-1.518;2023-07-20T09:48:03;8.03;;;2.00;;
70477;SDS011;57956;53.362;-1.518;2023-07-20T09:50:28;7.45;;;2.50;;
70477;SDS011;57956;53.362;-1.518;2023-07-20T09:52:53;6.63;;;2.10;;
70477;SDS011;57956;53.362;-1.518;2023-07-20T09:55:19;7.20;;;2.23;;
70477;SDS011;57956;53.362;-1.518;2023-07-20T09:57:46;6.45;;;2.15;;
70477;SDS011;57956;53.362;-1.518;2023-07-20T10:00:11;7.15;;;2.45;;
70477;SDS011;57956;53.362;-1.518;2023-07-20T10:02:41;8.33;;;1.87;;
70477;SDS011;57956;53.362;-1.518;2023-07-20T10:05:07;7.85;;;2.13;;
70477;SDS011;57956;53.362;-1.518;2023-07-20T10:07:34;8.15;;;2.33;;
70477;SDS011;57956;53.362;-1.518;2023-07-20T10:10:01;6.60;;;2.17;;
70477;SDS011;57956;53.362;-1.518;2023-07-20T10:12:26;11.73;;;3.08;;
70477;SDS011;57956;53.362;-1.518;2023-07-20T10:14:54;7.30;;;1.93;;
70477;SDS011;57956;53.362;-1.518;2023-07-20T10:17:23;7.60;;;1.92;;
70477;SDS011;57956;53.362;-1.518;2023-07-20T10:19:50;7.68;;;2.30;;
70477;SDS011;57956;53.362;-1.518;2023-07-20T10:22:20;6.40;;;2.20;;
70477;SDS011;57956;53.362;-1.518;2023-07-20T10:24:48;6.40;;;2.20;;
70477;SDS011;57956;53.362;-1.518;2023-07-20T10:27:14;8.77;;;3.10;;
70477;SDS011;57956;53.362;-1.518;2023-07-20T10:29:40;6.13;;;1.88;;
70477;SDS011;57956;53.362;-1.518;2023-07-20T10:32:05;6.50;;;2.10;;
70477;SDS011;57956;53.362;-1.518;2023-07-20T10:34:31;7.65;;;2.50;;
70477;SDS011;57956;53.362;-1.518;2023-07-20T10:36:56;7.37;;;2.37;;
70477;SDS011;57956;53.362;-1.518;2023-07-20T10:39:22;9.00;;;2.80;;
70477;SDS011;57956;53.362;-1.518;2023-07-20T10:41:48;8.85;;;2.53;;
70477;SDS011;57956;53.362;-1.518;2023-07-20T10:44:13;8.47;;;2.30;;
70477;SDS011;57956;53.362;-1.518;2023-07-20T10:46:44;7.43;;;2.40;;
70477;SDS011;57956;53.362;-1.518;2023-07-20T10:49:10;8.77;;;2.43;;
70477;SDS011;57956;53.362;-1.518;2023-07-20T10:51:39;8.07;;;2.73;;
70477;SDS011;57956;53.362;-1.518;2023-07-20T10:54:07;7.35;;;2.60;;
70477;SDS011;57956;53.362;-1.518;2023-07-20T10:56:33;7.53;;;2.30;;
70477;SDS011;57956;53.362;-1.518;2023-07-20T10:58:58;7.87;;;2.43;;
70477;SDS011;57956;53.362;-1.518;2023-07-20T11:01:27;9.15;;;2.78;;
70477;SDS011;57956;53.362;-1.518;2023-07-20T11:03:56;7.83;;;2.00;;
70477;SDS011;57956;53.362;-1.518;2023-07-20T11:08:56;6.70;;;2.42;;
70477;SDS011;57956;53.362;-1.518;2023-07-20T11:11:29;7.38;;;2.42;;
70477;SDS011;57956;53.362;-1.518;2023-07-20T11:13:55;6.78;;;2.05;;
70477;SDS011;57956;53.362;-1.518;2023-07-20T11:16:42;9.37;;;2.33;;
70477;SDS011;57956;53.362;-1.518;2023-07-20T11:19:16;9.40;;;2.20;;
70477;SDS011;57956;53.362;-1.518;2023-07-20T11:21:41;7.65;;;2.35;;
70477;SDS011;57956;53.362;-1.518;2023-07-20T11:24:07;5.53;;;1.83;;
70477;SDS011;57956;53.362;-1.518;2023-07-20T11:26:41;7.00;;;1.87;;
70477;SDS011;57956;53.362;-1.518;2023-07-20T11:29:06;6.88;;;2.00;;
70477;SDS011;57956;53.362;-1.518;2023-07-20T11:31:34;6.27;;;2.10;;
70477;SDS011;57956;53.362;-1.518;2023-07-20T11:33:59;6.07;;;1.90;;
70477;SDS011;57956;53.362;-1.518;2023-07-20T11:36:25;6.20;;;1.90;;
70477;SDS011;57956;53.362;-1.518;2023-07-20T11:38:50;5.90;;;1.70;;
70477;SDS011;57956;53.362;-1.518;2023-07-20T11:41:16;7.60;;;2.00;;
70477;SDS011;57956;53.362;-1.518;2023-07-20T11:43:41;5.53;;;2.00;;
70477;SDS011;57956;53.362;-1.518;2023-07-20T11:46:07;5.30;;;1.60;;
70477;SDS011;57956;53.362;-1.518;2023-07-20T11:48:32;6.30;;;2.20;;
70477;SDS011;57956;53.362;-1.518;2023-07-20T11:51:00;6.67;;;1.83;;
70477;SDS011;57956;53.362;-1.518;2023-07-20T11:53:25;6.32;;;2.08;;
70477;SDS011;57956;53.362;-1.518;2023-07-20T11:55:51;7.17;;;2.47;;
70477;SDS011;57956;53.362;-1.518;2023-07-20T11:58:16;5.37;;;2.07;;
70477;SDS011;57956;53.362;-1.518;2023-07-20T12:00:42;5.93;;;1.63;;
70477;SDS011;57956;53.362;-1.518;2023-07-20T12:03:09;7.93;;;1.67;;
70477;SDS011;57956;53.362;-1.518;2023-07-20T12:05:35;7.30;;;2.13;;
70477;SDS011;57956;53.362;-1.518;2023-07-20T12:08:01;5.63;;;2.10;;
70477;SDS011;57956;53.362;-1.518;2023-07-20T12:10:27;6.50;;;1.83;;
70477;SDS011;57956;53.362;-1.518;2023-07-20T12:12:53;5.77;;;1.80;;
70477;SDS011;57956;53.362;-1.518;2023-07-20T12:15:25;6.90;;;1.98;;
70477;SDS011;57956;53.362;-1.518;2023-07-20T12:18:01;6.28;;;2.15;;
70477;SDS011;57956;53.362;-1.518;2023-07-20T12:20:27;5.73;;;1.40;;
70477;SDS011;57956;53.362;-1.518;2023-07-20T12:22:55;4.65;;;1.42;;
70477;SDS011;57956;53.362;-1.518;2023-07-20T12:25:20;5.30;;;1.50;;
70477;SDS011;57956;53.362;-1.518;2023-07-20T12:27:47;5.03;;;1.43;;
70477;SDS011;57956;53.362;-1.518;2023-07-20T12:30:12;5.28;;;1.58;;
70477;SDS011;57956;53.362;-1.518;2023-07-20T12:32:38;5.07;;;1.70;;
70477;SDS011;57956;53.362;-1.518;2023-07-20T12:35:04;4.83;;;1.73;;
70477;SDS011;57956;53.362;-1.518;2023-07-20T12:37:29;5.23;;;1.80;;
70477;SDS011;57956;53.362;-1.518;2023-07-20T12:39:54;7.23;;;2.33;;
70477;SDS011;57956;53.362;-1.518;2023-07-20T12:42:19;4.87;;;1.60;;
70477;SDS011;57956;53.362;-1.518;2023-07-20T12:44:45;4.90;;;1.40;;
70477;SDS011;57956;53.362;-1.518;2023-07-20T12:47:10;4.50;;;1.60;;
70477;SDS011;57956;53.362;-1.518;2023-07-20T12:49:36;5.13;;;1.80;;
70477;SDS011;57956;53.362;-1.518;2023-07-20T12:52:01;4.90;;;1.57;;
70477;SDS011;57956;53.362;-1.518;2023-07-20T12:54:26;4.53;;;1.30;;
70477;SDS011;57956;53.362;-1.518;2023-07-20T12:56:51;5.67;;;1.73;;
70477;SDS011;57956;53.362;-1.518;2023-07-20T12:59:16;5.33;;;1.70;;
70477;SDS011;57956;53.362;-1.518;2023-07-20T13:01:42;6.00;;;1.53;;
70477;SDS011;57956;53.362;-1.518;2023-07-20T13:04:08;5.38;;;1.60;;
70477;SDS011;57956;53.362;-1.518;2023-07-20T13:06:35;6.13;;;1.67;;
70477;SDS011;57956;53.362;-1.518;2023-07-20T13:09:00;3.97;;;1.37;;
70477;SDS011;57956;53.362;-1.518;2023-07-20T13:11:25;4.63;;;1.20;;
70477;SDS011;57956;53.362;-1.518;2023-07-20T13:13:51;4.55;;;1.30;;
70477;SDS011;57956;53.362;-1.518;2023-07-20T13:16:16;4.80;;;1.40;;
70477;SDS011;57956;53.362;-1.518;2023-07-20T13:18:41;5.10;;;1.43;;
70477;SDS011;57956;53.362;-1.518;2023-07-20T13:21:07;5.93;;;1.63;;
70477;SDS011;57956;53.362;-1.518;2023-07-20T13:23:36;5.18;;;1.33;;
70477;SDS011;57956;53.362;-1.518;2023-07-20T13:26:01;4.30;;;1.27;;
70477;SDS011;57956;53.362;-1.518;2023-07-20T13:28:26;6.30;;;1.63;;
70477;SDS011;57956;53.362;-1.518;2023-07-20T13:30:52;7.80;;;1.47;;
70477;SDS011;57956;53.362;-1.518;2023-07-20T13:33:17;6.87;;;2.00;;
70477;SDS011;57956;53.362;-1.518;2023-07-20T13:35:42;4.90;;;1.50;;
70477;SDS011;57956;53.362;-1.518;2023-07-20T13:38:07;4.23;;;1.20;;
70477;SDS011;57956;53.362;-1.518;2023-07-20T13:40:33;4.10;;;1.17;;
70477;SDS011;57956;53.362;-1.518;2023-07-20T13:42:58;4.50;;;1.55;;
70477;SDS011;57956;53.362;-1.518;2023-07-20T13:45:23;4.80;;;1.53;;
70477;SDS011;57956;53.362;-1.518;2023-07-20T13:47:48;4.40;;;1.23;;
70477;SDS011;57956;53.362;-1.518;2023-07-20T13:50:14;4.13;;;1.30;;
70477;SDS011;57956;53.362;-1.518;2023-07-20T13:52:40;4.13;;;1.23;;
70477;SDS011;57956;53.362;-1.518;2023-07-20T13:55:05;5.73;;;1.47;;
70477;SDS011;57956;53.362;-1.518;2023-07-20T13:57:31;3.77;;;1.00;;
70477;SDS011;57956;53.362;-1.518;2023-07-20T13:59:56;5.95;;;1.23;;
70477;SDS011;57956;53.362;-1.518;2023-07-20T14:02:22;4.73;;;1.13;;
70477;SDS011;57956;53.362;-1.518;2023-07-20T14:04:47;5.67;;;1.27;;
70477;SDS011;57956;53.362;-1.518;2023-07-20T14:07:13;4.75;;;1.30;;
70477;SDS011;57956;53.362;-1.518;2023-07-20T14:09:38;4.23;;;0.90;;
70477;SDS011;57956;53.362;-1.518;2023-07-20T14:12:04;4.47;;;1.20;;
70477;SDS011;57956;53.362;-1.518;2023-07-20T14:14:29;5.07;;;1.40;;
70477;SDS011;57956;53.362;-1.518;2023-07-20T14:16:54;4.80;;;1.20;;
70477;SDS011;57956;53.362;-1.518;2023-07-20T14:19:21;3.90;;;0.90;;
70477;SDS011;57956;53.362;-1.518;2023-07-20T14:21:46;3.40;;;0.83;;
70477;SDS011;57956;53.362;-1.518;2023-07-20T14:24:11;4.37;;;1.20;;
70477;SDS011;57956;53.362;-1.518;2023-07-20T14:26:36;4.57;;;1.00;;
70477;SDS011;57956;53.362;-1.518;2023-07-20T14:29:02;4.00;;;1.03;;
70477;SDS011;57956;53.362;-1.518;2023-07-20T14:31:27;3.93;;;1.00;;
70477;SDS011;57956;53.362;-1.518;2023-07-20T14:33:52;4.73;;;1.17;;
70477;SDS011;57956;53.362;-1.518;2023-07-20T14:36:18;4.83;;;1.93;;
70477;SDS011;57956;53.362;-1.518;2023-07-20T14:38:43;6.32;;;1.30;;
70477;SDS011;57956;53.362;-1.518;2023-07-20T14:41:08;5.67;;;2.17;;